sensor_id;sensor_type;location;lat;lon;timestamp;P1;P2;P0
20157;PMS5003;10239;56.820;24.416;2023-07-31T00:00:49;3.00;3.00;2.50
20157;PMS5003;10239;56.820;24.416;2023-07-31T00:03:17;7.25;5.25;3.50
20157;PMS5003;10239;56.820;24.416;2023-07-31T00:05:44;12.25;10.75;5.25
20157;PMS5003;10239;56.820;24.416;2023-07-31T00:08:12;9.50;8.25;3.75
20157;PMS5003;10239;56.820;24.416;2023-07-31T00:10:39;7.75;6.50;3.00
20157;PMS5003;10239;56.820;24.416;2023-07-31T00:13:07;8.25;8.25;4.50
20157;PMS5003;10239;56.820;24.416;2023-07-31T00:15:34;7.50;5.25;3.25
20157;PMS5003;10239;56.820;24.416;2023-07-31T00:18:02;11.50;8.50;4.00
20157;PMS5003;10239;56.820;24.416;2023-07-31T00:20:30;6.00;6.00;3.75
20157;PMS5003;10239;56.820;24.416;2023-07-31T00:22:57;5.50;5.50;3.75
20157;PMS5003;10239;56.820;24.416;2023-07-31T00:25:25;6.25;4.50;2.75
20157;PMS5003;10239;56.820;24.416;2023-07-31T00:27:52;5.00;5.00;4.00
20157;PMS5003;10239;56.820;24.416;2023-07-31T00:30:20;6.50;6.50;4.00
20157;PMS5003;10239;56.820;24.416;2023-07-31T00:32:49;3.00;3.00;2.00
20157;PMS5003;10239;56.820;24.416;2023-07-31T00:35:16;7.67;5.67;3.67
20157;PMS5003;10239;56.820;24.416;2023-07-31T00:37:44;7.50;7.50;4.00
20157;PMS5003;10239;56.820;24.416;2023-07-31T00:40:12;8.00;6.00;4.00
20157;PMS5003;10239;56.820;24.416;2023-07-31T00:42:40;6.00;6.00;3.25
20157;PMS5003;10239;56.820;24.416;2023-07-31T00:45:08;8.25;6.75;3.75
20157;PMS5003;10239;56.820;24.416;2023-07-31T00:47:36;6.00;6.00;3.00
20157;PMS5003;10239;56.820;24.416;2023-07-31T00:50:04;10.00;6.75;4.25
20157;PMS5003;10239;56.820;24.416;2023-07-31T00:52:32;5.25;3.50;3.50
20157;PMS5003;10239;56.820;24.416;2023-07-31T00:55:00;5.50;5.25;3.25
20157;PMS5003;10239;56.820;24.416;2023-07-31T00:57:29;2.00;2.00;1.00
20157;PMS5003;10239;56.820;24.416;2023-07-31T00:59:59;7.50;6.50;3.75
20157;PMS5003;10239;56.820;24.416;2023-07-31T01:02:27;8.50;5.75;3.50
20157;PMS5003;10239;56.820;24.416;2023-07-31T01:04:55;7.75;5.50;3.75
20157;PMS5003;10239;56.820;24.416;2023-07-31T01:07:35;6.75;4.50;3.50
20157;PMS5003;10239;56.820;24.416;2023-07-31T01:12:40;11.75;8.25;4.00
20157;PMS5003;10239;56.820;24.416;2023-07-31T01:15:10;8.50;6.50;4.00
20157;PMS5003;10239;56.820;24.416;2023-07-31T01:17:38;5.25;5.25;3.00
20157;PMS5003;10239;56.820;24.416;2023-07-31T01:20:16;8.25;8.25;4.25
20157;PMS5003;10239;56.820;24.416;2023-07-31T01:22:54;6.25;4.50;3.00
20157;PMS5003;10239;56.820;24.416;2023-07-31T01:31:36;9.25;5.25;3.00
20157;PMS5003;10239;56.820;24.416;2023-07-31T01:34:05;5.00;5.00;3.25
20157;PMS5003;10239;56.820;24.416;2023-07-31T01:36:35;2.75;2.75;2.00
20157;PMS5003;10239;56.820;24.416;2023-07-31T01:39:04;5.50;5.50;3.00
20157;PMS5003;10239;56.820;24.416;2023-07-31T01:41:32;8.00;8.00;3.00
20157;PMS5003;10239;56.820;24.416;2023-07-31T01:43:59;7.00;7.00;3.75
20157;PMS5003;10239;56.820;24.416;2023-07-31T01:46:27;8.50;4.50;3.00
20157;PMS5003;10239;56.820;24.416;2023-07-31T01:48:55;7.50;7.50;3.00
20157;PMS5003;10239;56.820;24.416;2023-07-31T01:51:23;9.75;8.75;3.25
20157;PMS5003;10239;56.820;24.416;2023-07-31T01:53:50;8.25;8.25;4.00
20157;PMS5003;10239;56.820;24.416;2023-07-31T01:56:19;8.50;8.50;3.50
20157;PMS5003;10239;56.820;24.416;2023-07-31T01:58:46;7.00;7.00;4.00
20157;PMS5003;10239;56.820;24.416;2023-07-31T02:01:14;5.75;5.75;3.75
20157;PMS5003;10239;56.820;24.416;2023-07-31T02:03:41;7.00;5.00;3.00
20157;PMS5003;10239;56.820;24.416;2023-07-31T02:06:09;7.75;5.50;3.25
20157;PMS5003;10239;56.820;24.416;2023-07-31T02:08:37;10.75;6.25;2.75
20157;PMS5003;10239;56.820;24.416;2023-07-31T02:11:04;5.75;4.25;3.00
20157;PMS5003;10239;56.820;24.416;2023-07-31T02:13:32;7.00;7.00;4.00
20157;PMS5003;10239;56.820;24.416;2023-07-31T02:16:01;9.75;6.00;2.75
20157;PMS5003;10239;56.820;24.416;2023-07-31T02:18:29;7.00;7.00;3.75
20157;PMS5003;10239;56.820;24.416;2023-07-31T02:20:57;9.75;8.50;4.75
20157;PMS5003;10239;56.820;24.416;2023-07-31T02:23:25;9.75;6.00;4.00
20157;PMS5003;10239;56.820;24.416;2023-07-31T02:25:52;11.50;8.00;3.00
20157;PMS5003;10239;56.820;24.416;2023-07-31T02:28:20;7.25;5.50;3.25
20157;PMS5003;10239;56.820;24.416;2023-07-31T02:30:47;5.25;5.25;2.75
20157;PMS5003;10239;56.820;24.416;2023-07-31T02:33:18;11.75;5.00;3.75
20157;PMS5003;10239;56.820;24.416;2023-07-31T02:35:46;8.00;7.50;4.00
20157;PMS5003;10239;56.820;24.416;2023-07-31T02:38:14;10.75;9.50;4.00
20157;PMS5003;10239;56.820;24.416;2023-07-31T02:40:41;14.00;10.50;5.00
20157;PMS5003;10239;56.820;24.416;2023-07-31T02:43:09;8.00;8.00;4.00
20157;PMS5003;10239;56.820;24.416;2023-07-31T02:45:37;9.50;7.00;3.00
20157;PMS5003;10239;56.820;24.416;2023-07-31T02:48:04;11.50;9.00;3.50
20157;PMS5003;10239;56.820;24.416;2023-07-31T02:50:32;11.50;10.25;6.00
20157;PMS5003;10239;56.820;24.416;2023-07-31T02:53:00;10.75;10.00;7.00
20157;PMS5003;10239;56.820;24.416;2023-07-31T02:55:28;9.00;7.00;1.75
20157;PMS5003;10239;56.820;24.416;2023-07-31T02:57:56;8.75;6.75;4.00
20157;PMS5003;10239;56.820;24.416;2023-07-31T03:00:25;10.75;7.75;4.25
20157;PMS5003;10239;56.820;24.416;2023-07-31T03:02:53;9.75;8.25;4.25
20157;PMS5003;10239;56.820;24.416;2023-07-31T03:05:21;10.75;9.25;3.50
20157;PMS5003;10239;56.820;24.416;2023-07-31T03:07:48;8.75;8.75;3.25
20157;PMS5003;10239;56.820;24.416;2023-07-31T03:10:16;9.00;8.00;3.75
20157;PMS5003;10239;56.820;24.416;2023-07-31T03:12:46;8.50;8.50;4.50
20157;PMS5003;10239;56.820;24.416;2023-07-31T03:15:15;9.50;6.25;3.00
20157;PMS5003;10239;56.820;24.416;2023-07-31T03:17:42;9.00;9.00;4.00
20157;PMS5003;10239;56.820;24.416;2023-07-31T03:20:10;9.00;8.25;2.50
20157;PMS5003;10239;56.820;24.416;2023-07-31T03:22:38;10.50;10.50;4.75
20157;PMS5003;10239;56.820;24.416;2023-07-31T03:25:05;8.50;7.00;2.75
20157;PMS5003;10239;56.820;24.416;2023-07-31T03:27:33;10.00;8.50;3.00
20157;PMS5003;10239;56.820;24.416;2023-07-31T03:30:02;6.00;4.50;2.00
20157;PMS5003;10239;56.820;24.416;2023-07-31T03:32:30;12.50;10.50;4.50
20157;PMS5003;10239;56.820;24.416;2023-07-31T03:34:58;12.00;9.75;4.75
20157;PMS5003;10239;56.820;24.416;2023-07-31T03:37:28;11.00;11.00;4.50
20157;PMS5003;10239;56.820;24.416;2023-07-31T03:39:56;8.25;7.75;4.00
20157;PMS5003;10239;56.820;24.416;2023-07-31T03:42:24;11.25;11.25;5.00
20157;PMS5003;10239;56.820;24.416;2023-07-31T03:44:52;7.25;5.50;3.00
20157;PMS5003;10239;56.820;24.416;2023-07-31T03:47:20;12.75;8.50;4.50
20157;PMS5003;10239;56.820;24.416;2023-07-31T03:49:47;9.75;9.75;4.25
20157;PMS5003;10239;56.820;24.416;2023-07-31T03:52:15;9.25;9.25;5.00
20157;PMS5003;10239;56.820;24.416;2023-07-31T03:54:42;13.50;10.50;4.00
20157;PMS5003;10239;56.820;24.416;2023-07-31T03:57:11;8.75;7.75;4.00
20157;PMS5003;10239;56.820;24.416;2023-07-31T03:59:38;9.00;7.75;4.00
20157;PMS5003;10239;56.820;24.416;2023-07-31T04:02:06;6.00;6.00;2.75
20157;PMS5003;10239;56.820;24.416;2023-07-31T04:04:33;10.00;8.25;4.00
20157;PMS5003;10239;56.820;24.416;2023-07-31T04:07:02;10.75;8.75;4.00
20157;PMS5003;10239;56.820;24.416;2023-07-31T04:09:30;9.75;7.50;4.00
20157;PMS5003;10239;56.820;24.416;2023-07-31T04:11:58;15.75;9.75;4.00
20157;PMS5003;10239;56.820;24.416;2023-07-31T04:14:25;7.50;7.25;3.50
20157;PMS5003;10239;56.820;24.416;2023-07-31T04:16:53;9.75;7.75;5.00
20157;PMS5003;10239;56.820;24.416;2023-07-31T04:19:20;10.25;10.25;3.50
20157;PMS5003;10239;56.820;24.416;2023-07-31T04:21:48;9.75;8.00;4.00
20157;PMS5003;10239;56.820;24.416;2023-07-31T04:24:15;4.25;4.25;2.75
20157;PMS5003;10239;56.820;24.416;2023-07-31T04:26:48;3.00;3.00;2.50
20157;PMS5003;10239;56.820;24.416;2023-07-31T04:29:19;9.00;6.75;3.75
20157;PMS5003;10239;56.820;24.416;2023-07-31T04:31:47;9.25;9.25;3.50
20157;PMS5003;10239;56.820;24.416;2023-07-31T04:34:15;12.25;10.25;4.75
20157;PMS5003;10239;56.820;24.416;2023-07-31T04:36:45;4.75;4.75;3.75
20157;PMS5003;10239;56.820;24.416;2023-07-31T04:39:13;6.25;5.25;3.00
20157;PMS5003;10239;56.820;24.416;2023-07-31T04:41:43;3.50;3.50;3.00
20157;PMS5003;10239;56.820;24.416;2023-07-31T04:44:11;5.25;5.25;3.50
20157;PMS5003;10239;56.820;24.416;2023-07-31T04:46:39;3.00;3.00;2.00
20157;PMS5003;10239;56.820;24.416;2023-07-31T04:49:07;4.00;4.00;3.00
20157;PMS5003;10239;56.820;24.416;2023-07-31T04:51:35;5.00;5.00;3.00
20157;PMS5003;10239;56.820;24.416;2023-07-31T04:54:03;4.50;4.50;3.00
20157;PMS5003;10239;56.820;24.416;2023-07-31T04:56:31;5.75;5.75;4.00
20157;PMS5003;10239;56.820;24.416;2023-07-31T04:58:58;5.00;5.00;3.50
20157;PMS5003;10239;56.820;24.416;2023-07-31T05:01:28;5.00;5.00;4.00
20157;PMS5003;10239;56.820;24.416;2023-07-31T05:03:56;2.75;2.75;2.25
20157;PMS5003;10239;56.820;24.416;2023-07-31T05:06:23;8.25;6.00;4.00
20157;PMS5003;10239;56.820;24.416;2023-07-31T05:08:52;4.75;4.75;2.50
20157;PMS5003;10239;56.820;24.416;2023-07-31T05:11:19;5.25;5.25;3.00
20157;PMS5003;10239;56.820;24.416;2023-07-31T05:13:52;5.25;5.25;3.50
20157;PMS5003;10239;56.820;24.416;2023-07-31T05:16:20;4.00;4.00;2.50
20157;PMS5003;10239;56.820;24.416;2023-07-31T05:18:48;25.50;25.50;12.75
20157;PMS5003;10239;56.820;24.416;2023-07-31T05:21:17;8.50;8.50;5.25
20157;PMS5003;10239;56.820;24.416;2023-07-31T05:23:46;4.00;4.00;1.75
20157;PMS5003;10239;56.820;24.416;2023-07-31T05:26:14;5.75;5.75;3.00
20157;PMS5003;10239;56.820;24.416;2023-07-31T05:28:44;3.00;3.00;2.00
20157;PMS5003;10239;56.820;24.416;2023-07-31T05:31:12;4.00;4.00;2.75
20157;PMS5003;10239;56.820;24.416;2023-07-31T05:33:40;6.25;5.00;2.25
20157;PMS5003;10239;56.820;24.416;2023-07-31T05:36:07;5.00;5.00;4.00
20157;PMS5003;10239;56.820;24.416;2023-07-31T05:38:35;5.00;5.00;4.00
20157;PMS5003;10239;56.820;24.416;2023-07-31T05:41:03;6.00;6.00;3.50
20157;PMS5003;10239;56.820;24.416;2023-07-31T05:43:30;5.75;5.75;4.00
20157;PMS5003;10239;56.820;24.416;2023-07-31T05:45:58;4.50;4.50;3.00
20157;PMS5003;10239;56.820;24.416;2023-07-31T05:48:26;5.00;5.00;2.75
20157;PMS5003;10239;56.820;24.416;2023-07-31T05:50:53;4.50;4.50;3.00
20157;PMS5003;10239;56.820;24.416;2023-07-31T05:53:21;5.25;5.25;2.00
20157;PMS5003;10239;56.820;24.416;2023-07-31T05:55:49;6.25;6.25;3.00
20157;PMS5003;10239;56.820;24.416;2023-07-31T05:58:16;6.75;6.75;2.00
20157;PMS5003;10239;56.820;24.416;2023-07-31T06:00:44;6.25;6.25;2.25
20157;PMS5003;10239;56.820;24.416;2023-07-31T06:03:11;7.75;7.75;3.00
20157;PMS5003;10239;56.820;24.416;2023-07-31T06:05:39;8.75;7.00;3.50
20157;PMS5003;10239;56.820;24.416;2023-07-31T06:08:07;9.75;8.25;3.00
20157;PMS5003;10239;56.820;24.416;2023-07-31T06:10:34;8.75;7.75;4.00
20157;PMS5003;10239;56.820;24.416;2023-07-31T06:13:02;6.50;6.50;2.75
20157;PMS5003;10239;56.820;24.416;2023-07-31T06:15:30;8.75;8.75;3.50
20157;PMS5003;10239;56.820;24.416;2023-07-31T06:17:57;6.50;6.50;3.00
20157;PMS5003;10239;56.820;24.416;2023-07-31T06:20:28;4.50;4.50;3.50
20157;PMS5003;10239;56.820;24.416;2023-07-31T06:22:56;6.75;6.75;2.75
20157;PMS5003;10239;56.820;24.416;2023-07-31T06:25:24;9.25;7.50;3.50
20157;PMS5003;10239;56.820;24.416;2023-07-31T06:27:52;7.75;6.50;4.00
20157;PMS5003;10239;56.820;24.416;2023-07-31T06:30:19;9.25;8.50;4.50
20157;PMS5003;10239;56.820;24.416;2023-07-31T06:32:46;5.25;5.25;3.00
20157;PMS5003;10239;56.820;24.416;2023-07-31T06:35:14;7.50;5.75;3.00
20157;PMS5003;10239;56.820;24.416;2023-07-31T06:37:42;5.50;5.50;2.75
20157;PMS5003;10239;56.820;24.416;2023-07-31T06:40:11;5.00;3.75;2.00
20157;PMS5003;10239;56.820;24.416;2023-07-31T06:42:38;8.00;7.50;4.00
20157;PMS5003;10239;56.820;24.416;2023-07-31T06:45:06;4.60;4.60;2.40
20157;PMS5003;10239;56.820;24.416;2023-07-31T06:47:34;7.60;5.80;3.00
20157;PMS5003;10239;56.820;24.416;2023-07-31T06:50:02;4.40;4.40;2.40
20157;PMS5003;10239;56.820;24.416;2023-07-31T06:52:30;6.40;6.40;2.60
20157;PMS5003;10239;56.820;24.416;2023-07-31T06:55:01;4.20;4.00;2.00
20157;PMS5003;10239;56.820;24.416;2023-07-31T06:57:31;5.20;5.20;1.80
20157;PMS5003;10239;56.820;24.416;2023-07-31T06:59:58;6.20;5.80;2.00
20157;PMS5003;10239;56.820;24.416;2023-07-31T07:02:26;4.60;3.80;0.60
20157;PMS5003;10239;56.820;24.416;2023-07-31T07:04:53;3.80;3.80;1.40
20157;PMS5003;10239;56.820;24.416;2023-07-31T07:07:21;3.60;3.60;2.00
20157;PMS5003;10239;56.820;24.416;2023-07-31T07:09:49;3.60;2.40;2.00
20157;PMS5003;10239;56.820;24.416;2023-07-31T07:12:16;3.40;3.40;2.80
20157;PMS5003;10239;56.820;24.416;2023-07-31T07:14:44;7.20;4.80;2.80
20157;PMS5003;10239;56.820;24.416;2023-07-31T07:17:14;2.80;2.80;2.00
20157;PMS5003;10239;56.820;24.416;2023-07-31T07:19:41;4.40;4.40;2.40
20157;PMS5003;10239;56.820;24.416;2023-07-31T07:22:09;0.00;0.00;0.00
20157;PMS5003;10239;56.820;24.416;2023-07-31T07:24:37;3.00;3.00;1.00
20157;PMS5003;10239;56.820;24.416;2023-07-31T07:27:05;4.40;4.20;2.20
20157;PMS5003;10239;56.820;24.416;2023-07-31T07:29:35;3.20;3.20;1.80
20157;PMS5003;10239;56.820;24.416;2023-07-31T07:32:05;6.00;5.00;2.80
20157;PMS5003;10239;56.820;24.416;2023-07-31T07:34:33;3.00;3.00;1.60
20157;PMS5003;10239;56.820;24.416;2023-07-31T07:37:01;3.80;3.00;2.00
20157;PMS5003;10239;56.820;24.416;2023-07-31T07:39:29;4.60;4.60;2.40
20157;PMS5003;10239;56.820;24.416;2023-07-31T07:41:56;4.00;4.00;2.00
20157;PMS5003;10239;56.820;24.416;2023-07-31T07:44:24;3.40;3.40;1.80
20157;PMS5003;10239;56.820;24.416;2023-07-31T07:46:51;4.00;4.00;2.00
20157;PMS5003;10239;56.820;24.416;2023-07-31T07:49:19;5.00;5.00;1.80
20157;PMS5003;10239;56.820;24.416;2023-07-31T07:51:49;2.00;2.00;1.00
20157;PMS5003;10239;56.820;24.416;2023-07-31T07:54:16;2.60;2.60;2.00
20157;PMS5003;10239;56.820;24.416;2023-07-31T07:56:44;4.80;4.20;2.00
20157;PMS5003;10239;56.820;24.416;2023-07-31T07:59:11;4.60;4.60;2.20
20157;PMS5003;10239;56.820;24.416;2023-07-31T08:01:39;4.00;4.00;1.80
20157;PMS5003;10239;56.820;24.416;2023-07-31T08:04:06;2.60;2.60;1.00
20157;PMS5003;10239;56.820;24.416;2023-07-31T08:06:34;8.20;4.40;3.00
20157;PMS5003;10239;56.820;24.416;2023-07-31T08:09:01;3.00;3.00;2.00
20157;PMS5003;10239;56.820;24.416;2023-07-31T08:11:33;5.00;3.40;2.20
20157;PMS5003;10239;56.820;24.416;2023-07-31T08:14:00;3.00;3.00;1.00
20157;PMS5003;10239;56.820;24.416;2023-07-31T08:16:28;0.40;0.40;0.00
20157;PMS5003;10239;56.820;24.416;2023-07-31T08:18:56;2.00;2.00;2.00
20157;PMS5003;10239;56.820;24.416;2023-07-31T08:21:23;1.40;1.40;1.00
20157;PMS5003;10239;56.820;24.416;2023-07-31T08:23:51;1.40;1.40;1.00
20157;PMS5003;10239;56.820;24.416;2023-07-31T08:26:44;4.20;4.20;2.20
20157;PMS5003;10239;56.820;24.416;2023-07-31T08:29:34;3.00;3.00;2.00
20157;PMS5003;10239;56.820;24.416;2023-07-31T08:32:03;4.60;4.60;2.20
20157;PMS5003;10239;56.820;24.416;2023-07-31T08:34:30;4.20;4.20;2.00
20157;PMS5003;10239;56.820;24.416;2023-07-31T08:36:58;4.20;4.20;2.20
20157;PMS5003;10239;56.820;24.416;2023-07-31T08:39:25;1.40;1.40;1.20
20157;PMS5003;10239;56.820;24.416;2023-07-31T08:41:57;2.20;2.20;1.20
20157;PMS5003;10239;56.820;24.416;2023-07-31T08:44:26;5.00;5.00;2.40
20157;PMS5003;10239;56.820;24.416;2023-07-31T08:46:54;3.20;3.20;2.00
20157;PMS5003;10239;56.820;24.416;2023-07-31T08:49:22;3.80;3.40;2.00
20157;PMS5003;10239;56.820;24.416;2023-07-31T08:51:51;2.00;2.00;2.00
20157;PMS5003;10239;56.820;24.416;2023-07-31T08:54:21;2.80;2.20;1.00
20157;PMS5003;10239;56.820;24.416;2023-07-31T08:56:48;5.80;2.60;2.20
20157;PMS5003;10239;56.820;24.416;2023-07-31T08:59:17;4.00;2.60;2.00
20157;PMS5003;10239;56.820;24.416;2023-07-31T09:01:48;5.00;3.40;1.20
20157;PMS5003;10239;56.820;24.416;2023-07-31T09:04:20;6.20;4.00;2.00
20157;PMS5003;10239;56.820;24.416;2023-07-31T09:06:49;7.00;5.00;2.20
20157;PMS5003;10239;56.820;24.416;2023-07-31T09:09:22;5.00;5.00;3.00
20157;PMS5003;10239;56.820;24.416;2023-07-31T09:11:50;6.80;5.20;2.20
20157;PMS5003;10239;56.820;24.416;2023-07-31T09:14:18;4.00;4.00;2.00
20157;PMS5003;10239;56.820;24.416;2023-07-31T09:16:58;6.00;6.00;3.20
20157;PMS5003;10239;56.820;24.416;2023-07-31T09:19:32;6.00;3.00;1.80
20157;PMS5003;10239;56.820;24.416;2023-07-31T09:22:04;5.00;5.00;3.00
20157;PMS5003;10239;56.820;24.416;2023-07-31T09:24:32;6.20;5.20;3.00
20157;PMS5003;10239;56.820;24.416;2023-07-31T09:27:01;5.20;5.20;2.80
20157;PMS5003;10239;56.820;24.416;2023-07-31T09:29:28;4.20;3.00;2.60
20157;PMS5003;10239;56.820;24.416;2023-07-31T09:31:56;3.80;3.80;2.00
20157;PMS5003;10239;56.820;24.416;2023-07-31T09:34:29;5.00;5.00;4.00
20157;PMS5003;10239;56.820;24.416;2023-07-31T09:37:06;5.60;5.60;2.40
20157;PMS5003;10239;56.820;24.416;2023-07-31T09:39:44;5.60;4.20;2.80
20157;PMS5003;10239;56.820;24.416;2023-07-31T09:42:25;5.00;5.00;3.40
20157;PMS5003;10239;56.820;24.416;2023-07-31T09:44:53;3.60;3.60;2.00
20157;PMS5003;10239;56.820;24.416;2023-07-31T09:47:24;3.40;1.00;0.00
20157;PMS5003;10239;56.820;24.416;2023-07-31T09:49:53;6.40;5.40;3.00
20157;PMS5003;10239;56.820;24.416;2023-07-31T09:52:20;3.50;3.50;3.00
20157;PMS5003;10239;56.820;24.416;2023-07-31T09:54:48;3.20;1.80;1.00
20157;PMS5003;10239;56.820;24.416;2023-07-31T09:57:16;3.00;3.00;2.00
20157;PMS5003;10239;56.820;24.416;2023-07-31T09:59:45;5.00;5.00;2.60
20157;PMS5003;10239;56.820;24.416;2023-07-31T10:02:15;6.00;5.00;2.50
20157;PMS5003;10239;56.820;24.416;2023-07-31T10:04:51;4.25;4.25;2.25
20157;PMS5003;10239;56.820;24.416;2023-07-31T10:07:25;5.75;4.50;2.00
20157;PMS5003;10239;56.820;24.416;2023-07-31T10:09:54;3.75;3.75;1.25
20157;PMS5003;10239;56.820;24.416;2023-07-31T10:12:25;5.75;4.25;2.00
20157;PMS5003;10239;56.820;24.416;2023-07-31T10:14:56;4.00;3.50;2.00
20157;PMS5003;10239;56.820;24.416;2023-07-31T10:17:26;5.00;4.40;1.60
20157;PMS5003;10239;56.820;24.416;2023-07-31T10:19:55;4.00;3.00;1.20
20157;PMS5003;10239;56.820;24.416;2023-07-31T10:22:28;3.20;2.00;1.60
20157;PMS5003;10239;56.820;24.416;2023-07-31T10:24:57;5.20;4.40;2.00
20157;PMS5003;10239;56.820;24.416;2023-07-31T10:27:26;2.60;2.60;1.80
20157;PMS5003;10239;56.820;24.416;2023-07-31T10:29:57;5.60;3.00;2.00
20157;PMS5003;10239;56.820;24.416;2023-07-31T10:32:26;2.80;2.80;1.80
20157;PMS5003;10239;56.820;24.416;2023-07-31T10:34:55;3.40;3.00;1.00
20157;PMS5003;10239;56.820;24.416;2023-07-31T10:37:24;2.00;2.00;1.00
20157;PMS5003;10239;56.820;24.416;2023-07-31T10:39:59;2.80;2.80;1.80
20157;PMS5003;10239;56.820;24.416;2023-07-31T10:42:38;1.60;1.60;0.60
20157;PMS5003;10239;56.820;24.416;2023-07-31T10:45:11;3.00;2.00;1.00
20157;PMS5003;10239;56.820;24.416;2023-07-31T10:47:42;3.00;3.00;1.40
20157;PMS5003;10239;56.820;24.416;2023-07-31T10:52:49;2.40;2.00;1.00
20157;PMS5003;10239;56.820;24.416;2023-07-31T10:55:25;2.00;2.00;1.00
20157;PMS5003;10239;56.820;24.416;2023-07-31T10:57:54;2.60;2.60;0.80
20157;PMS5003;10239;56.820;24.416;2023-07-31T11:00:26;3.00;3.00;1.40
20157;PMS5003;10239;56.820;24.416;2023-07-31T11:02:58;2.20;2.20;1.00
20157;PMS5003;10239;56.820;24.416;2023-07-31T11:05:50;2.00;2.00;1.00
20157;PMS5003;10239;56.820;24.416;2023-07-31T11:08:22;1.00;1.00;1.00
20157;PMS5003;10239;56.820;24.416;2023-07-31T11:10:51;2.00;2.00;1.00
20157;PMS5003;10239;56.820;24.416;2023-07-31T11:13:43;3.00;3.00;1.80
20157;PMS5003;10239;56.820;24.416;2023-07-31T11:16:17;4.80;2.00;1.00
20157;PMS5003;10239;56.820;24.416;2023-07-31T11:18:47;2.00;2.00;1.00
20157;PMS5003;10239;56.820;24.416;2023-07-31T11:21:17;2.20;2.20;1.00
20157;PMS5003;10239;56.820;24.416;2023-07-31T11:23:50;1.20;1.20;1.00
20157;PMS5003;10239;56.820;24.416;2023-07-31T11:26:19;6.00;2.80;1.00
20157;PMS5003;10239;56.820;24.416;2023-07-31T11:28:48;2.00;2.00;1.00
20157;PMS5003;10239;56.820;24.416;2023-07-31T11:31:16;1.60;1.20;1.00
20157;PMS5003;10239;56.820;24.416;2023-07-31T11:33:45;2.20;2.20;1.20
20157;PMS5003;10239;56.820;24.416;2023-07-31T11:36:14;2.00;2.00;1.00
20157;PMS5003;10239;56.820;24.416;2023-07-31T11:38:46;2.40;1.40;1.00
20157;PMS5003;10239;56.820;24.416;2023-07-31T11:41:15;2.00;2.00;1.00
20157;PMS5003;10239;56.820;24.416;2023-07-31T11:43:45;3.00;3.00;1.80
20157;PMS5003;10239;56.820;24.416;2023-07-31T11:46:14;1.80;1.80;0.80
20157;PMS5003;10239;56.820;24.416;2023-07-31T11:48:42;1.00;1.00;0.80
20157;PMS5003;10239;56.820;24.416;2023-07-31T11:51:10;1.00;1.00;0.80
20157;PMS5003;10239;56.820;24.416;2023-07-31T11:53:49;3.40;3.40;2.00
20157;PMS5003;10239;56.820;24.416;2023-07-31T11:56:20;3.20;2.00;1.00
20157;PMS5003;10239;56.820;24.416;2023-07-31T11:58:52;1.20;1.00;1.00
20157;PMS5003;10239;56.820;24.416;2023-07-31T12:01:24;2.20;1.80;1.20
20157;PMS5003;10239;56.820;24.416;2023-07-31T12:03:55;3.00;2.00;1.60
20157;PMS5003;10239;56.820;24.416;2023-07-31T12:06:37;5.40;2.00;1.00
20157;PMS5003;10239;56.820;24.416;2023-07-31T12:09:05;2.80;2.00;1.00
20157;PMS5003;10239;56.820;24.416;2023-07-31T12:11:46;1.00;1.00;0.00
20157;PMS5003;10239;56.820;24.416;2023-07-31T12:14:29;2.80;1.20;0.40
20157;PMS5003;10239;56.820;24.416;2023-07-31T12:17:03;3.20;1.40;1.00
20157;PMS5003;10239;56.820;24.416;2023-07-31T12:19:33;1.80;1.80;1.00
20157;PMS5003;10239;56.820;24.416;2023-07-31T12:22:02;2.00;2.00;1.00
20157;PMS5003;10239;56.820;24.416;2023-07-31T12:24:39;2.80;2.00;0.00
20157;PMS5003;10239;56.820;24.416;2023-07-31T12:27:08;1.00;1.00;1.00
20157;PMS5003;10239;56.820;24.416;2023-07-31T12:29:41;1.60;1.60;1.00
20157;PMS5003;10239;56.820;24.416;2023-07-31T12:32:21;3.00;3.00;2.00
20157;PMS5003;10239;56.820;24.416;2023-07-31T12:34:52;2.00;2.00;1.00
20157;PMS5003;10239;56.820;24.416;2023-07-31T12:37:23;1.00;1.00;1.00
20157;PMS5003;10239;56.820;24.416;2023-07-31T12:39:50;1.80;1.80;0.00
20157;PMS5003;10239;56.820;24.416;2023-07-31T12:42:18;1.00;1.00;0.20
20157;PMS5003;10239;56.820;24.416;2023-07-31T12:44:45;1.00;1.00;0.00
20157;PMS5003;10239;56.820;24.416;2023-07-31T12:47:13;1.00;1.00;0.00
20157;PMS5003;10239;56.820;24.416;2023-07-31T12:49:41;1.40;1.40;0.60
20157;PMS5003;10239;56.820;24.416;2023-07-31T12:52:09;1.00;1.00;1.00
20157;PMS5003;10239;56.820;24.416;2023-07-31T12:54:36;2.40;1.00;1.00
20157;PMS5003;10239;56.820;24.416;2023-07-31T12:57:03;2.00;2.00;1.00
20157;PMS5003;10239;56.820;24.416;2023-07-31T12:59:31;2.60;1.00;0.00
20157;PMS5003;10239;56.820;24.416;2023-07-31T13:01:58;1.00;1.00;1.00
20157;PMS5003;10239;56.820;24.416;2023-07-31T13:04:26;1.00;1.00;0.40
20157;PMS5003;10239;56.820;24.416;2023-07-31T13:06:53;2.40;1.80;1.00
20157;PMS5003;10239;56.820;24.416;2023-07-31T13:09:20;2.20;0.80;0.40
20157;PMS5003;10239;56.820;24.416;2023-07-31T13:11:48;0.40;0.40;0.00
20157;PMS5003;10239;56.820;24.416;2023-07-31T13:14:15;1.00;1.00;1.00
20157;PMS5003;10239;56.820;24.416;2023-07-31T13:16:43;1.00;1.00;0.00
20157;PMS5003;10239;56.820;24.416;2023-07-31T13:19:10;1.00;1.00;0.60
20157;PMS5003;10239;56.820;24.416;2023-07-31T13:21:38;1.00;1.00;0.00
20157;PMS5003;10239;56.820;24.416;2023-07-31T13:24:06;0.60;0.60;0.00
20157;PMS5003;10239;56.820;24.416;2023-07-31T13:26:34;1.00;1.00;0.40
20157;PMS5003;10239;56.820;24.416;2023-07-31T13:29:02;2.20;2.00;1.00
20157;PMS5003;10239;56.820;24.416;2023-07-31T13:31:30;1.00;1.00;0.00
20157;PMS5003;10239;56.820;24.416;2023-07-31T13:33:57;1.80;1.00;0.40
20157;PMS5003;10239;56.820;24.416;2023-07-31T13:36:24;2.00;1.00;0.00
20157;PMS5003;10239;56.820;24.416;2023-07-31T13:38:52;1.80;1.00;0.00
20157;PMS5003;10239;56.820;24.416;2023-07-31T13:41:19;0.00;0.00;0.00
20157;PMS5003;10239;56.820;24.416;2023-07-31T13:43:47;2.40;1.20;0.00
20157;PMS5003;10239;56.820;24.416;2023-07-31T13:46:14;1.00;1.00;0.20
20157;PMS5003;10239;56.820;24.416;2023-07-31T13:48:41;2.20;1.00;0.00
20157;PMS5003;10239;56.820;24.416;2023-07-31T13:51:09;1.80;1.80;0.60
20157;PMS5003;10239;56.820;24.416;2023-07-31T13:53:36;1.00;1.00;1.00
20157;PMS5003;10239;56.820;24.416;2023-07-31T13:56:04;1.60;1.60;1.00
20157;PMS5003;10239;56.820;24.416;2023-07-31T13:58:32;2.00;2.00;1.00
20157;PMS5003;10239;56.820;24.416;2023-07-31T14:01:00;0.40;0.40;0.00
20157;PMS5003;10239;56.820;24.416;2023-07-31T14:03:27;3.00;1.80;0.20
20157;PMS5003;10239;56.820;24.416;2023-07-31T14:05:54;1.00;1.00;0.40
20157;PMS5003;10239;56.820;24.416;2023-07-31T14:08:22;2.20;2.20;0.40
20157;PMS5003;10239;56.820;24.416;2023-07-31T14:10:49;1.80;1.80;1.00
20157;PMS5003;10239;56.820;24.416;2023-07-31T14:13:17;1.80;1.00;0.00
20157;PMS5003;10239;56.820;24.416;2023-07-31T14:15:44;2.00;2.00;1.00
20157;PMS5003;10239;56.820;24.416;2023-07-31T14:18:12;1.00;1.00;0.60
20157;PMS5003;10239;56.820;24.416;2023-07-31T14:20:40;1.20;1.20;1.00
20157;PMS5003;10239;56.820;24.416;2023-07-31T14:23:07;1.80;1.20;0.20
20157;PMS5003;10239;56.820;24.416;2023-07-31T14:25:35;1.00;1.00;0.00
20157;PMS5003;10239;56.820;24.416;2023-07-31T14:28:02;2.40;2.00;1.00
20157;PMS5003;10239;56.820;24.416;2023-07-31T14:30:30;1.60;1.60;0.60